Time;durP1;ratioP1;P1;durP2;ratioP2;P2;SDS_P1;SDS_P2;PMS_P1;PMS_P2;Temp;Humidity;BMP_temperature;BMP_pressure;BME280_temperature;BME280_humidity;BME280_pressure;Samples;Min_cycle;Max_cycle;Signal;HPM_P1;HPM_P2
2023/01/29 00:00:25;;;;;;;24.40;15.48;;;;;;;4.78;54.79;103010.75;5074071;28;20083;-61
2023/01/29 00:02:52;;;;;;;22.98;15.38;;;;;;;4.79;55.25;103011.59;5079758;28;20046;-60
2023/01/29 00:05:20;;;;;;;23.15;15.45;;;;;;;4.79;54.79;102999.13;5076695;28;20079;-60
2023/01/29 00:07:55;;;;;;;26.42;16.38;;;;;;;4.78;55.19;103015.22;5076084;28;20083;-60
2023/01/29 00:10:23;;;;;;;24.60;15.90;;;;;;;4.76;55.17;103018.03;5073536;28;20112;-61
2023/01/29 00:12:51;;;;;;;21.42;14.68;;;;;;;4.72;55.35;103011.28;5076963;28;20131;-58
2023/01/29 00:15:19;;;;;;;25.58;15.10;;;;;;;4.75;55.01;103010.16;5091098;28;20045;-60
2023/01/29 00:17:48;;;;;;;22.70;15.02;;;;;;;4.76;55.35;103009.19;5083557;28;20075;-60
2023/01/29 00:20:17;;;;;;;24.10;16.33;;;;;;;4.74;54.98;103013.81;5071373;28;20498;-60
2023/01/29 00:22:45;;;;;;;23.90;15.30;;;;;;;4.73;55.35;102999.63;5081665;28;20102;-60
2023/01/29 00:25:13;;;;;;;27.13;16.25;;;;;;;4.73;54.89;102998.78;5082352;28;20071;-60
2023/01/29 00:27:40;;;;;;;25.52;16.42;;;;;;;4.72;54.62;102994.44;5074237;28;20116;-60
2023/01/29 00:30:11;;;;;;;26.55;17.15;;;;;;;4.71;54.74;102992.75;5074558;28;20080;-60
2023/01/29 00:32:39;;;;;;;27.15;16.70;;;;;;;4.70;54.99;102999.91;5083738;28;20448;-60
2023/01/29 00:35:09;;;;;;;27.88;15.88;;;;;;;4.71;54.76;102993.59;5081561;28;20080;-60
2023/01/29 00:37:37;;;;;;;24.63;15.85;;;;;;;4.70;54.93;102993.72;5065253;28;20514;-60
2023/01/29 00:40:06;;;;;;;24.88;16.05;;;;;;;4.68;54.84;102988.53;5074572;28;20108;-60
2023/01/29 00:45:19;;;;;;;31.58;18.02;;;;;;;4.69;54.90;102986.72;5075339;28;20461;-61
2023/01/29 00:47:47;;;;;;;25.55;16.92;;;;;;;4.67;55.11;102986.00;5081420;28;20131;-60
2023/01/29 00:50:16;;;;;;;25.13;16.92;;;;;;;4.67;55.07;102978.84;5075483;28;20049;-60
2023/01/29 00:52:44;;;;;;;26.00;17.02;;;;;;;4.67;54.88;102978.84;5071706;28;20033;-60
2023/01/29 00:55:12;;;;;;;25.55;16.27;;;;;;;4.65;55.59;102963.97;5076359;28;20064;-60
2023/01/29 00:57:40;;;;;;;27.95;17.00;;;;;;;4.65;54.94;102962.16;5077345;28;20076;-61
2023/01/29 01:00:13;;;;;;;27.52;17.48;;;;;;;4.65;55.31;102961.31;5079716;28;20082;-60
2023/01/29 01:05:28;;;;;;;26.00;16.05;;;;;;;4.66;55.41;102952.34;5086094;28;20103;-60
2023/01/29 01:07:58;;;;;;;25.67;17.20;;;;;;;4.64;55.19;102952.47;5079421;28;20051;-61
2023/01/29 01:10:28;;;;;;;25.38;17.10;;;;;;;4.64;54.82;102947.16;5074566;28;20052;-60
2023/01/29 01:12:58;;;;;;;29.75;18.00;;;;;;;4.64;54.99;102943.66;5079376;28;20100;-60
2023/01/29 01:15:28;;;;;;;29.60;18.65;;;;;;;4.64;54.91;102955.16;5076507;28;20048;-60
2023/01/29 01:17:57;;;;;;;27.30;17.58;;;;;;;4.64;55.19;102957.81;5070793;28;20053;-60
2023/01/29 01:20:25;;;;;;;26.27;17.48;;;;;;;4.62;55.30;102956.25;5077854;28;20048;-60
2023/01/29 01:22:55;;;;;;;32.15;18.85;;;;;;;4.61;54.92;102955.41;5076090;28;20060;-60
2023/01/29 01:25:23;;;;;;;28.98;18.05;;;;;;;4.55;55.16;102942.63;5079541;28;20040;-60
2023/01/29 01:27:52;;;;;;;30.40;19.20;;;;;;;4.59;55.25;102952.03;5067662;28;20052;-60
2023/01/29 01:30:20;;;;;;;31.40;18.25;;;;;;;4.60;54.83;102963.53;5080874;28;20055;-60
2023/01/29 01:32:48;;;;;;;33.08;19.60;;;;;;;4.59;55.37;102954.69;5074853;28;20055;-60
2023/01/29 01:35:16;;;;;;;29.42;18.40;;;;;;;4.59;55.27;102952.03;5077406;28;20041;-60
2023/01/29 01:37:44;;;;;;;28.75;18.05;;;;;;;4.58;55.48;102958.34;5077262;28;20048;-60
2023/01/29 01:40:20;;;;;;;30.02;18.42;;;;;;;4.58;55.47;102963.66;5075030;28;20049;-61
2023/01/29 01:42:49;;;;;;;32.00;18.58;;;;;;;4.57;55.42;102953.97;5072739;28;20049;-60
2023/01/29 01:45:24;;;;;;;28.58;18.00;;;;;;;4.57;55.38;102960.16;5071292;28;20091;-61
2023/01/29 01:47:56;;;;;;;25.40;17.50;;;;;;;4.55;55.07;102975.41;5078479;28;20063;-60
2023/01/29 01:50:28;;;;;;;27.10;16.92;;;;;;;4.55;54.91;102971.91;5074642;28;20045;-60
2023/01/29 01:53:02;;;;;;;29.25;17.67;;;;;;;4.54;55.38;102972.88;5076155;28;20045;-60
2023/01/29 01:55:34;;;;;;;30.88;18.40;;;;;;;4.53;55.38;102966.72;5076000;28;20194;-60
2023/01/29 01:58:09;;;;;;;27.92;17.33;;;;;;;4.54;55.44;102964.91;5071444;28;20155;-60
2023/01/29 02:00:38;;;;;;;30.42;18.48;;;;;;;4.54;55.02;102964.91;5071101;28;20051;-60
2023/01/29 02:11:33;;;;;;;29.48;18.60;;;;;;;4.51;55.41;102973.97;5074230;28;20431;-60
2023/01/29 02:14:02;;;;;;;32.30;19.35;;;;;;;4.50;55.00;102972.28;5077784;28;20105;-60
2023/01/29 02:16:30;;;;;;;28.40;17.88;;;;;;;4.48;55.35;102965.41;5073421;28;20070;-60
2023/01/29 02:18:58;;;;;;;28.52;18.42;;;;;;;4.48;55.72;102971.59;5079779;28;20481;-60
2023/01/29 02:21:50;;;;;;;28.05;18.10;;;;;;;4.47;55.08;102972.56;5081092;28;20128;-60
2023/01/29 02:25:08;;;;;;;26.40;18.15;;;;;;;4.48;55.03;102973.41;5072613;28;20063;-60
2023/01/29 02:28:09;;;;;;;30.15;18.52;;;;;;;4.44;55.63;102974.63;5008340;28;20069;-60
2023/01/29 02:30:42;;;;;;;29.45;18.58;;;;;;;4.45;55.01;102982.50;5008497;28;20050;-60
2023/01/29 02:33:20;;;;;;;27.00;17.10;;;;;;;4.45;55.22;102982.50;5011102;28;20049;-60
2023/01/29 02:35:56;;;;;;;31.17;19.00;;;;;;;4.44;55.28;102986.13;5013407;28;20457;-60
2023/01/29 02:38:30;;;;;;;26.35;16.58;;;;;;;4.44;55.88;102979.97;5007905;28;20117;-61
2023/01/29 02:41:02;;;;;;;29.45;17.58;;;;;;;4.44;54.94;102982.63;5008541;28;20050;-60
2023/01/29 02:43:37;;;;;;;29.58;18.27;;;;;;;4.42;55.26;102969.44;5021764;28;20042;-60
2023/01/29 02:46:15;;;;;;;28.20;17.75;;;;;;;4.41;54.97;102980.22;5012206;28;20137;-60
2023/01/29 02:48:53;;;;;;;28.38;17.98;;;;;;;4.42;55.01;102973.91;5009452;28;20050;-60
2023/01/29 02:51:30;;;;;;;28.45;17.63;;;;;;;4.40;55.53;102971.38;5008154;28;20050;-60
2023/01/29 02:54:03;;;;;;;31.25;19.23;;;;;;;4.40;55.20;102976.72;5009445;28;20042;-60
2023/01/29 02:56:38;;;;;;;26.60;17.08;;;;;;;4.39;55.56;102967.03;5016792;28;20045;-60
2023/01/29 02:59:09;;;;;;;28.60;17.80;;;;;;;4.39;55.12;102968.84;5064496;28;20048;-60
2023/01/29 03:01:45;;;;;;;29.67;18.60;;;;;;;4.38;55.31;102967.16;5076854;28;20474;-60
2023/01/29 03:04:19;;;;;;;28.15;17.45;;;;;;;4.36;55.60;102961.97;5081969;28;20048;-60
2023/01/29 03:06:53;;;;;;;31.92;19.80;;;;;;;4.38;55.62;102962.69;5081029;28;20073;-60
2023/01/29 03:09:28;;;;;;;26.77;17.92;;;;;;;4.36;55.68;102955.81;5081718;28;20044;-60
2023/01/29 03:12:17;;;;;;;29.67;18.90;;;;;;;4.36;55.80;102969.94;5080760;28;20541;-60
2023/01/29 03:17:41;;;;;;;29.10;18.40;;;;;;;4.36;55.23;102961.13;5073357;28;20491;-59
2023/01/29 03:20:14;;;;;;;28.10;18.40;;;;;;;4.34;55.47;102971.91;5079752;28;20081;-60
2023/01/29 03:22:47;;;;;;;28.60;18.17;;;;;;;4.35;54.91;102962.94;5084048;28;20397;-59
2023/01/29 03:33:45;;;;;;;29.42;17.75;;;;;;;4.32;55.51;102957.03;5077374;28;20030;-60
2023/01/29 03:36:18;;;;;;;31.33;19.02;;;;;;;4.33;55.39;102950.72;5078094;28;20070;-60
2023/01/29 03:38:46;;;;;;;31.33;19.42;;;;;;;4.32;55.21;102949.91;5069130;28;20059;-61
2023/01/29 03:41:23;;;;;;;32.80;19.30;;;;;;;4.30;55.36;102941.19;5079513;28;20147;-60
2023/01/29 03:43:59;;;;;;;29.83;19.98;;;;;;;4.30;55.56;102956.31;5073941;28;20071;-60
2023/01/29 03:46:33;;;;;;;27.17;17.20;;;;;;;4.29;56.04;102955.47;5078304;28;20044;-60
2023/01/29 03:49:12;;;;;;;28.92;17.88;;;;;;;4.29;55.31;102949.31;5070747;28;20061;-60
2023/01/29 03:51:53;;;;;;;28.27;18.80;;;;;;;4.30;55.33;102958.97;5082533;28;20384;-59
2023/01/29 03:54:26;;;;;;;30.30;18.85;;;;;;;4.28;55.44;102953.78;5078913;28;20095;-61
2023/01/29 03:57:00;;;;;;;31.88;19.63;;;;;;;4.27;55.66;102944.13;5082224;28;20057;-60
2023/01/29 03:59:37;;;;;;;30.98;18.55;;;;;;;4.27;55.14;102935.28;5080406;28;20048;-61
2023/01/29 04:02:08;;;;;;;25.85;16.85;;;;;;;4.25;55.82;102943.41;5083068;28;20052;-60
2023/01/29 04:04:41;;;;;;;29.45;18.63;;;;;;;4.25;55.18;102936.25;5076898;28;20049;-61
2023/01/29 04:07:12;;;;;;;31.65;19.17;;;;;;;4.26;55.82;102942.41;5079903;28;20082;-60
2023/01/29 04:09:46;;;;;;;29.42;18.73;;;;;;;4.25;56.02;102944.25;5072445;28;20045;-60
2023/01/29 04:12:18;;;;;;;31.05;18.33;;;;;;;4.26;55.91;102942.41;5069246;28;20127;-59
2023/01/29 04:14:47;;;;;;;27.70;18.80;;;;;;;4.24;55.86;102936.38;5083651;28;20075;-62
2023/01/29 04:17:19;;;;;;;30.52;18.23;;;;;;;4.25;55.74;102936.25;5085406;28;20036;-61
2023/01/29 04:19:48;;;;;;;28.13;17.75;;;;;;;4.25;55.60;102919.44;5079953;28;20171;-59
2023/01/29 04:22:20;;;;;;;27.88;17.60;;;;;;;4.24;55.93;102918.59;5079980;28;20257;-60
2023/01/29 04:24:49;;;;;;;27.25;17.80;;;;;;;4.25;56.18;102925.59;5075789;28;20132;-60
2023/01/29 04:27:27;;;;;;;27.83;18.35;;;;;;;4.25;56.17;102922.94;5080043;28;20096;-60
2023/01/29 04:30:05;;;;;;;32.40;18.48;;;;;;;4.25;56.10;102917.63;5072543;28;20091;-60
2023/01/29 04:32:46;;;;;;;30.92;18.65;;;;;;;4.25;56.49;102916.78;5076757;28;20049;-60
2023/01/29 04:35:29;;;;;;;26.50;17.13;;;;;;;4.27;56.14;102919.31;5078409;28;20044;-60
2023/01/29 04:38:06;;;;;;;28.63;18.10;;;;;;;4.27;56.09;102917.50;5079251;28;20094;-60
2023/01/29 04:40:42;;;;;;;27.33;18.20;;;;;;;4.22;56.26;102912.56;5082840;28;20079;-60
2023/01/29 04:43:18;;;;;;;27.27;17.83;;;;;;;4.27;55.97;102911.31;5074125;28;20068;-60
2023/01/29 04:45:59;;;;;;;26.70;17.00;;;;;;;4.27;56.23;102908.66;5069322;28;20465;-60
2023/01/29 04:48:30;;;;;;;33.70;18.00;;;;;;;4.25;56.78;102901.66;5076413;28;20053;-60
2023/01/29 04:51:08;;;;;;;29.98;19.08;;;;;;;4.27;56.57;102903.34;5076014;28;20051;-60
2023/01/29 04:53:41;;;;;;;28.48;17.50;;;;;;;4.27;56.68;102890.88;5077765;28;20050;-60
2023/01/29 04:56:16;;;;;;;27.92;18.10;;;;;;;4.25;56.22;102892.81;5075294;28;20057;-59
2023/01/29 04:58:48;;;;;;;27.55;17.77;;;;;;;4.25;56.58;102884.84;5077967;28;20537;-59
2023/01/29 05:01:19;;;;;;;29.63;17.15;;;;;;;4.24;56.39;102889.31;5076317;28;20243;-60
2023/01/29 05:03:50;;;;;;;28.10;18.02;;;;;;;4.23;56.80;102878.81;5069164;28;20049;-59
2023/01/29 05:06:21;;;;;;;29.58;18.08;;;;;;;4.25;56.96;102880.38;5071558;28;20188;-60
2023/01/29 05:08:51;;;;;;;28.30;17.52;;;;;;;4.23;56.92;102874.31;5073262;28;20063;-60
2023/01/29 05:11:20;;;;;;;28.88;18.23;;;;;;;4.25;56.85;102871.53;5078834;28;20068;-60
2023/01/29 05:13:48;;;;;;;27.77;17.27;;;;;;;4.23;56.09;102865.50;5081073;28;20147;-60
2023/01/29 05:16:20;;;;;;;27.88;17.85;;;;;;;4.23;56.26;102871.66;5072344;28;20494;-60
2023/01/29 05:18:48;;;;;;;27.08;17.25;;;;;;;4.20;57.12;102855.13;5076454;28;20561;-60
2023/01/29 05:21:16;;;;;;;30.88;18.35;;;;;;;4.23;56.79;102852.19;5079793;28;20108;-60
2023/01/29 05:23:52;;;;;;;28.23;18.17;;;;;;;4.22;56.56;102864.66;5084204;28;20056;-60
2023/01/29 05:29:05;;;;;;;30.38;18.58;;;;;;;4.23;57.31;102870.81;5076482;28;20044;-59
2023/01/29 05:31:33;;;;;;;28.70;17.98;;;;;;;4.22;56.86;102856.66;5080643;28;20059;-60
2023/01/29 05:34:01;;;;;;;29.05;17.58;;;;;;;4.22;56.58;102851.34;5074490;28;20040;-60
2023/01/29 05:36:29;;;;;;;31.52;17.90;;;;;;;4.22;57.32;102853.16;5075623;28;20072;-60
2023/01/29 05:38:58;;;;;;;33.50;19.27;;;;;;;4.21;57.32;102844.34;5076117;28;20040;-59
2023/01/29 05:41:26;;;;;;;29.27;17.70;;;;;;;4.21;56.88;102844.34;5071749;28;20372;-59
2023/01/29 05:43:54;;;;;;;30.23;18.02;;;;;;;4.21;57.10;102846.16;5074654;28;20078;-60
2023/01/29 05:46:21;;;;;;;29.30;18.55;;;;;;;4.21;57.11;102848.81;5076785;28;20483;-60
2023/01/29 05:48:52;;;;;;;28.25;16.95;;;;;;;4.22;56.96;102847.84;5072924;28;20111;-60
2023/01/29 05:51:20;;;;;;;28.70;17.55;;;;;;;4.21;56.79;102854.16;5071681;28;20124;-60
2023/01/29 05:53:47;;;;;;;32.42;19.27;;;;;;;4.22;57.13;102864.66;5084891;28;20569;-60
2023/01/29 05:56:17;;;;;;;29.67;18.35;;;;;;;4.22;57.55;102859.34;5076508;28;20044;-60
2023/01/29 05:58:44;;;;;;;29.48;18.77;;;;;;;4.23;56.92;102862.84;5080441;28;20072;-59
2023/01/29 06:01:15;;;;;;;30.95;18.70;;;;;;;4.24;56.81;102875.16;5082571;28;20049;-60
2023/01/29 06:03:43;;;;;;;30.27;17.42;;;;;;;4.27;57.49;102876.72;4724362;28;10000556;-60
2023/01/29 06:06:11;;;;;;;26.88;17.17;;;;;;;4.37;56.48;102870.50;5073005;28;20054;-60
2023/01/29 06:08:39;;;;;;;33.20;19.92;;;;;;;4.50;56.77;102879.09;5073497;28;20076;-60
2023/01/29 06:11:09;;;;;;;30.52;18.08;;;;;;;4.64;55.94;102877.91;5070020;28;20048;-60
2023/01/29 06:13:38;;;;;;;27.73;17.20;;;;;;;4.83;55.73;102877.16;5080523;28;20580;-59
2023/01/29 06:16:07;;;;;;;27.85;17.88;;;;;;;4.99;55.68;102872.16;5074721;28;20051;-60
2023/01/29 06:18:35;;;;;;;28.58;18.38;;;;;;;5.16;54.52;102871.50;5074350;28;20044;-60
2023/01/29 06:21:04;;;;;;;27.60;17.30;;;;;;;5.34;54.53;102858.31;5076106;28;20608;-59
2023/01/29 06:23:33;;;;;;;26.48;16.85;;;;;;;5.46;54.05;102857.22;5072348;28;20079;-60
2023/01/29 06:26:00;;;;;;;27.88;17.73;;;;;;;5.63;53.77;102873.50;5070230;28;20082;-60
2023/01/29 06:28:29;;;;;;;27.35;16.92;;;;;;;5.76;53.12;102892.75;5074628;28;20078;-60
2023/01/29 06:30:59;;;;;;;27.20;17.05;;;;;;;5.83;53.17;102880.53;5071581;28;20084;-59
2023/01/29 06:33:42;;;;;;;31.08;17.60;;;;;;;5.98;52.68;102889.00;5068725;28;20183;-59
2023/01/29 06:36:10;;;;;;;29.42;18.98;;;;;;;6.06;52.28;102878.44;5077232;28;20052;-60
2023/01/29 06:38:38;;;;;;;30.58;17.17;;;;;;;6.10;52.20;102863.84;5072326;28;20053;-60
2023/01/29 06:41:12;;;;;;;30.73;19.27;;;;;;;6.01;52.36;102852.19;5062975;28;20060;-61
2023/01/29 06:43:40;;;;;;;29.90;18.73;;;;;;;5.86;52.81;102832.22;5067885;28;20155;-60
2023/01/29 06:46:09;;;;;;;25.88;17.50;;;;;;;5.68;53.18;102836.59;5073256;28;20063;-60
2023/01/29 06:48:36;;;;;;;28.65;17.45;;;;;;;5.47;54.02;102834.91;5072077;28;20419;-60
2023/01/29 06:51:06;;;;;;;33.30;18.15;;;;;;;5.30;54.49;102854.25;5062517;28;20127;-59
2023/01/29 06:53:35;;;;;;;29.45;17.38;;;;;;;5.19;55.04;102849.91;5079659;28;20155;-57
2023/01/29 06:56:04;;;;;;;27.33;17.45;;;;;;;5.08;54.96;102846.53;5069710;28;20076;-61
2023/01/29 06:58:32;;;;;;;28.45;18.05;;;;;;;5.01;55.71;102840.06;5063216;28;20052;-57
2023/01/29 07:01:03;;;;;;;29.23;17.10;;;;;;;4.96;55.52;102842.28;5070004;28;20068;-58
2023/01/29 07:03:33;;;;;;;27.90;17.50;;;;;;;4.90;55.93;102836.53;5070534;28;20044;-58
2023/01/29 07:06:01;;;;;;;27.20;16.08;;;;;;;4.87;55.81;102827.97;5077118;28;20041;-58
2023/01/29 07:08:29;;;;;;;28.75;17.92;;;;;;;4.82;55.97;102832.84;5073854;28;20060;-58
2023/01/29 07:10:59;;;;;;;28.83;17.48;;;;;;;4.79;56.46;102827.78;5071252;28;20049;-58
2023/01/29 07:13:27;;;;;;;27.75;17.60;;;;;;;4.71;56.28;102825.81;5075730;28;20072;-59
2023/01/29 07:15:58;;;;;;;27.90;17.48;;;;;;;4.63;56.88;102816.78;5065432;28;20088;-58
2023/01/29 07:18:26;;;;;;;29.35;18.30;;;;;;;4.69;56.26;102840.22;5071916;28;20505;-59
2023/01/29 07:20:56;;;;;;;29.40;18.52;;;;;;;4.66;56.44;102830.69;5073059;28;20520;-58
2023/01/29 07:23:24;;;;;;;30.73;19.00;;;;;;;4.62;56.46;102831.94;5074581;28;20888;-58
2023/01/29 07:25:52;;;;;;;27.50;18.27;;;;;;;4.61;57.42;102838.25;5064807;28;20053;-58
2023/01/29 07:28:20;;;;;;;28.77;17.58;;;;;;;4.55;57.20;102834.28;5072252;28;20084;-58
2023/01/29 07:30:48;;;;;;;28.13;18.45;;;;;;;4.57;56.88;102839.47;5077493;28;20128;-59
2023/01/29 07:33:15;;;;;;;26.90;17.05;;;;;;;4.68;57.16;102843.88;5082789;28;20044;-61
2023/01/29 07:35:43;;;;;;;28.17;18.35;;;;;;;4.81;56.39;102841.81;5080975;28;20060;-59
2023/01/29 07:38:12;;;;;;;32.35;18.85;;;;;;;4.98;55.71;102838.50;5074056;28;20067;-59
2023/01/29 07:40:40;;;;;;;27.77;17.75;;;;;;;5.16;55.30;102849.34;5076369;28;20052;-59
2023/01/29 07:43:09;;;;;;;25.70;17.00;;;;;;;5.31;54.88;102834.59;5072600;28;20071;-59
2023/01/29 07:45:39;;;;;;;29.63;18.73;;;;;;;5.51;54.45;102830.13;5081266;28;20060;-59
2023/01/29 07:48:09;;;;;;;26.42;17.65;;;;;;;5.65;54.05;102831.53;5081757;28;20086;-60
2023/01/29 07:50:38;;;;;;;27.55;17.83;;;;;;;5.83;53.74;102825.34;5072651;28;20135;-59
2023/01/29 07:53:05;;;;;;;27.58;17.23;;;;;;;5.98;53.30;102820.44;5070289;28;20263;-58
2023/01/29 07:55:35;;;;;;;30.90;17.52;;;;;;;6.12;53.20;102820.00;5077521;28;20075;-59
2023/01/29 07:58:03;;;;;;;28.25;18.48;;;;;;;6.23;52.69;102829.66;5075196;28;20080;-59
2023/01/29 08:00:32;;;;;;;28.15;18.23;;;;;;;6.30;52.07;102833.44;5070381;28;20067;-59
2023/01/29 08:03:03;;;;;;;28.48;18.58;;;;;;;6.32;52.24;102831.47;5075271;28;20053;-58
2023/01/29 08:05:31;;;;;;;27.70;18.65;;;;;;;6.35;51.96;102825.84;5077995;28;20563;-59
2023/01/29 08:07:59;;;;;;;29.23;17.60;;;;;;;6.37;52.08;102821.19;5076727;28;20059;-58
2023/01/29 08:10:35;;;;;;;28.65;18.33;;;;;;;6.29;52.08;102826.41;5075084;28;20044;-58
2023/01/29 08:13:04;;;;;;;28.00;19.38;;;;;;;6.13;52.66;102835.03;5075146;28;20477;-58
2023/01/29 08:15:32;;;;;;;30.80;18.25;;;;;;;5.96;53.10;102818.91;5080857;28;20048;-59
2023/01/29 08:18:01;;;;;;;29.95;17.88;;;;;;;5.76;53.91;102815.38;5073013;28;20514;-59
2023/01/29 08:20:29;;;;;;;27.83;18.13;;;;;;;5.59;54.44;102824.94;5068585;28;20083;-59
2023/01/29 08:23:00;;;;;;;31.67;18.13;;;;;;;5.47;54.69;102816.25;5077190;28;20136;-58
2023/01/29 08:25:29;;;;;;;27.75;17.75;;;;;;;5.37;54.93;102811.88;5069895;28;20113;-59
2023/01/29 08:28:00;;;;;;;31.75;18.88;;;;;;;5.26;55.73;102828.00;5074314;28;20143;-59
2023/01/29 08:30:29;;;;;;;30.50;17.45;;;;;;;5.21;55.84;102826.59;5077573;28;20064;-60
2023/01/29 08:32:57;;;;;;;27.17;17.70;;;;;;;5.17;56.05;102837.72;5073362;28;20084;-60
2023/01/29 08:35:25;;;;;;;27.88;16.98;;;;;;;5.11;55.63;102827.59;5072594;28;20119;-58
2023/01/29 08:37:54;;;;;;;26.23;17.88;;;;;;;5.05;56.29;102823.66;5065792;28;20077;-59
2023/01/29 08:40:22;;;;;;;31.40;19.90;;;;;;;5.02;56.03;102815.09;5071209;28;20083;-60
2023/01/29 08:42:50;;;;;;;28.88;18.25;;;;;;;4.97;56.40;102812.00;5073759;28;20255;-59
2023/01/29 08:45:19;;;;;;;27.52;17.63;;;;;;;4.94;56.50;102817.59;5074571;28;20053;-60
2023/01/29 08:47:47;;;;;;;27.92;17.42;;;;;;;4.92;57.02;102816.88;5074328;28;20112;-59
2023/01/29 08:50:16;;;;;;;25.98;17.05;;;;;;;4.89;56.39;102818.00;5075091;28;20049;-59
2023/01/29 08:52:45;;;;;;;27.27;17.77;;;;;;;4.87;56.69;102806.66;5077336;28;20614;-60
2023/01/29 08:55:13;;;;;;;27.67;16.88;;;;;;;4.85;56.83;102795.28;5081396;28;20133;-58
2023/01/29 08:57:41;;;;;;;27.00;16.92;;;;;;;4.84;56.70;102799.78;5072199;28;20068;-58
2023/01/29 09:00:11;;;;;;;27.90;17.98;;;;;;;4.81;56.83;102797.38;5077694;28;20059;-59
2023/01/29 09:02:41;;;;;;;28.40;18.75;;;;;;;4.81;56.96;102801.88;5081372;28;20071;-59
2023/01/29 09:05:09;;;;;;;27.15;17.15;;;;;;;4.78;57.58;102796.81;5073549;28;20052;-58
2023/01/29 09:07:37;;;;;;;26.58;16.92;;;;;;;4.77;57.44;102801.28;5072898;28;20511;-58
2023/01/29 09:10:05;;;;;;;25.92;16.38;;;;;;;4.76;57.48;102809.41;5075439;28;20128;-61
2023/01/29 09:12:33;;;;;;;25.45;16.15;;;;;;;4.75;57.59;102815.72;5069606;28;20045;-61
2023/01/29 09:15:01;;;;;;;28.15;17.58;;;;;;;4.73;57.62;102804.34;5066473;28;20129;-61
2023/01/29 09:17:29;;;;;;;27.42;18.00;;;;;;;4.72;57.21;102802.69;5076959;28;20123;-63
2023/01/29 09:19:58;;;;;;;26.92;17.60;;;;;;;4.80;57.52;102797.50;5076541;28;20048;-63
2023/01/29 09:22:26;;;;;;;26.55;17.15;;;;;;;4.86;57.15;102786.31;5066991;28;20140;-63
2023/01/29 09:24:53;;;;;;;28.90;17.92;;;;;;;5.10;56.71;102791.25;5063577;28;20540;-63
2023/01/29 09:27:21;;;;;;;27.55;16.98;;;;;;;5.19;55.96;102783.28;5078208;28;20056;-63
2023/01/29 09:29:49;;;;;;;25.25;16.88;;;;;;;5.40;55.56;102784.94;5069615;28;20053;-60
2023/01/29 09:32:16;;;;;;;24.90;16.38;;;;;;;5.57;55.21;102787.75;5064615;28;20838;-60
2023/01/29 09:35:06;;;;;;;25.92;17.02;;;;;;;5.67;54.98;102785.06;5070765;28;20447;-60
2023/01/29 09:37:34;;;;;;;26.08;16.55;;;;;;;5.66;54.67;102780.72;5072734;28;20472;-60
2023/01/29 09:40:02;;;;;;;26.60;16.52;;;;;;;5.60;54.92;102773.28;5073437;28;20127;-60
2023/01/29 09:42:38;;;;;;;25.00;16.23;;;;;;;5.50;55.39;102783.13;5078783;28;20052;-60
2023/01/29 09:45:12;;;;;;;24.95;15.88;;;;;;;5.37;55.42;102775.41;5074294;28;20108;-61
2023/01/29 09:47:40;;;;;;;26.95;16.38;;;;;;;5.27;55.85;102777.22;5071525;28;20039;-60
2023/01/29 09:50:17;;;;;;;27.92;18.23;;;;;;;5.20;55.98;102779.59;5078703;28;20056;-61
2023/01/29 09:52:52;;;;;;;26.65;17.25;;;;;;;5.14;56.17;102776.69;5069979;28;20045;-59
2023/01/29 09:55:24;;;;;;;26.33;16.83;;;;;;;5.11;56.21;102771.63;5070405;28;20120;-60
2023/01/29 09:57:55;;;;;;;28.58;17.10;;;;;;;5.07;56.47;102768.41;5070086;28;20064;-60
2023/01/29 10:00:28;;;;;;;28.23;16.50;;;;;;;5.04;56.88;102773.16;5067901;28;20037;-60
2023/01/29 10:03:17;;;;;;;25.92;16.15;;;;;;;5.00;56.59;102777.94;5073270;28;20102;-60
2023/01/29 10:06:03;;;;;;;25.60;16.25;;;;;;;4.98;57.08;102777.22;5074396;28;20048;-61
2023/01/29 10:08:55;;;;;;;27.08;17.05;;;;;;;4.95;56.94;102785.50;5075129;28;20489;-61
2023/01/29 10:11:32;;;;;;;25.85;15.98;;;;;;;4.90;57.43;102777.06;5069508;28;20041;-63
2023/01/29 10:14:11;;;;;;;25.63;16.55;;;;;;;4.88;57.18;102790.53;5064666;28;20056;-60
2023/01/29 10:16:51;;;;;;;28.80;16.50;;;;;;;4.85;57.66;102788.13;5065924;28;20048;-60
2023/01/29 10:19:40;;;;;;;26.13;16.38;;;;;;;4.83;57.63;102792.75;5077921;28;20083;-60
2023/01/29 10:22:30;;;;;;;25.40;16.40;;;;;;;4.81;57.36;102791.22;5087579;28;20066;-60
2023/01/29 10:25:02;;;;;;;25.25;16.80;;;;;;;4.81;57.48;102792.06;5062840;28;20279;-60
2023/01/29 10:27:33;;;;;;;27.95;17.27;;;;;;;4.80;57.38;102786.84;5072003;28;20126;-61
2023/01/29 10:30:08;;;;;;;26.40;15.40;;;;;;;4.81;57.62;102789.38;5069225;28;20045;-60
2023/01/29 10:32:37;;;;;;;31.23;17.35;;;;;;;4.77;58.03;102781.81;5076577;28;20075;-60
2023/01/29 10:35:20;;;;;;;27.90;17.27;;;;;;;4.79;57.60;102777.19;5065639;28;20041;-61
2023/01/29 10:37:53;;;;;;;26.67;15.43;;;;;;;4.79;58.29;102779.84;5084830;28;20115;-60
2023/01/29 10:40:23;;;;;;;28.77;16.75;;;;;;;4.77;57.77;102768.47;5065439;28;20116;-60
2023/01/29 10:43:00;;;;;;;27.45;16.40;;;;;;;4.79;57.81;102778.03;5069247;28;20084;-60
2023/01/29 10:45:37;;;;;;;24.17;14.95;;;;;;;4.81;57.49;102772.56;5070143;28;20904;-60
2023/01/29 10:48:44;;;;;;;24.52;15.20;;;;;;;4.92;57.25;102769.78;5068339;28;20057;-60
2023/01/29 10:51:25;;;;;;;26.63;15.90;;;;;;;5.09;56.64;102768.25;5069372;28;20219;-60
2023/01/29 10:54:09;;;;;;;25.88;15.63;;;;;;;5.25;56.20;102757.84;5073660;28;20058;-59
2023/01/29 10:56:54;;;;;;;24.88;15.43;;;;;;;5.43;55.61;102755.34;5071734;28;20119;-60
2023/01/29 10:59:39;;;;;;;25.13;15.55;;;;;;;5.60;55.59;102756.44;5069589;28;20049;-60
2023/01/29 11:02:16;;;;;;;24.13;14.40;;;;;;;5.76;55.05;102748.69;5068536;28;20206;-60
2023/01/29 11:04:45;;;;;;;28.05;15.43;;;;;;;5.73;55.02;102749.81;5075118;28;20049;-60
2023/01/29 11:07:14;;;;;;;23.15;14.73;;;;;;;5.65;55.32;102755.03;5066816;28;20048;-61
2023/01/29 11:09:48;;;;;;;24.58;14.65;;;;;;;5.61;55.54;102742.97;5071462;28;20139;-60
2023/01/29 11:12:19;;;;;;;23.80;14.73;;;;;;;5.51;55.42;102742.97;5079982;28;20096;-65
2023/01/29 11:14:53;;;;;;;24.13;15.25;;;;;;;5.40;56.26;102737.78;5073096;28;20516;-61
2023/01/29 11:17:23;;;;;;;23.15;14.85;;;;;;;5.33;56.02;102728.69;5078140;28;20055;-61
2023/01/29 11:19:54;;;;;;;25.58;15.57;;;;;;;5.26;56.30;102722.22;5072735;28;20044;-61
2023/01/29 11:22:23;;;;;;;27.80;15.30;;;;;;;5.20;56.61;102720.16;5073177;28;20049;-63
2023/01/29 11:25:09;;;;;;;24.52;15.02;;;;;;;5.15;57.14;102717.91;5080481;28;20128;-61
2023/01/29 11:27:43;;;;;;;23.48;14.15;;;;;;;5.09;57.11;102717.63;5078206;28;20075;-58
2023/01/29 11:30:19;;;;;;;24.63;15.00;;;;;;;5.10;56.98;102708.66;5072141;28;20051;-60
2023/01/29 11:32:51;;;;;;;24.60;14.23;;;;;;;5.06;57.07;102700.09;5082950;28;20053;-60
2023/01/29 11:35:25;;;;;;;25.60;14.82;;;;;;;5.04;57.53;102691.41;5079131;28;20056;-60
2023/01/29 11:37:53;;;;;;;26.60;15.55;;;;;;;5.03;57.44;102687.06;5072107;28;20112;-61
2023/01/29 11:40:37;;;;;;;21.98;14.25;;;;;;;5.01;57.41;102683.69;5074905;28;20271;-61
2023/01/29 11:43:17;;;;;;;22.88;14.80;;;;;;;5.00;57.87;102673.16;5075055;28;20049;-61
2023/01/29 11:45:46;;;;;;;24.80;15.65;;;;;;;4.99;57.35;102663.50;5068717;28;20037;-61
2023/01/29 11:48:16;;;;;;;22.33;14.32;;;;;;;5.00;58.20;102658.03;5076305;28;20048;-61
2023/01/29 11:50:51;;;;;;;24.02;14.68;;;;;;;5.00;57.78;102652.69;5068826;28;20084;-62
2023/01/29 11:53:31;;;;;;;23.15;13.45;;;;;;;5.01;57.61;102651.72;5073491;28;20072;-62
2023/01/29 11:56:02;;;;;;;24.90;14.95;;;;;;;5.00;57.83;102644.69;5073722;28;20084;-60
2023/01/29 11:58:34;;;;;;;28.35;14.77;;;;;;;4.98;57.57;102641.34;5073617;28;21324;-59
2023/01/29 12:01:03;;;;;;;25.55;14.98;;;;;;;5.00;58.26;102638.53;5077522;28;20049;-60
2023/01/29 12:03:35;;;;;;;23.60;14.65;;;;;;;4.98;57.88;102622.69;5074212;28;20120;-60
2023/01/29 12:06:06;;;;;;;27.55;14.32;;;;;;;4.98;58.43;102622.69;5074067;28;20063;-60